sensor_id;sensor_type;location;lat;lon;timestamp;temperature;humidity
21403;DHT22;10862;51.886;17.078;2024-03-22T00:00:55;10.80;1.00
21403;DHT22;10862;51.886;17.078;2024-03-22T00:03:20;10.70;5.30
21403;DHT22;10862;51.886;17.078;2024-03-22T00:05:46;10.70;19.80
21403;DHT22;10862;51.886;17.078;2024-03-22T00:08:12;10.70;50.20
21403;DHT22;10862;51.886;17.078;2024-03-22T00:10:37;10.70;77.70
21403;DHT22;10862;51.886;17.078;2024-03-22T00:13:03;10.70;93.00
21403;DHT22;10862;51.886;17.078;2024-03-22T00:15:29;10.70;89.10
21403;DHT22;10862;51.886;17.078;2024-03-22T00:17:54;10.80;93.70
21403;DHT22;10862;51.886;17.078;2024-03-22T00:20:20;10.70;71.00
21403;DHT22;10862;51.886;17.078;2024-03-22T00:22:45;10.60;95.80
21403;DHT22;10862;51.886;17.078;2024-03-22T00:25:11;10.60;99.90
21403;DHT22;10862;51.886;17.078;2024-03-22T00:27:37;10.60;99.90
21403;DHT22;10862;51.886;17.078;2024-03-22T00:30:02;10.70;99.90
21403;DHT22;10862;51.886;17.078;2024-03-22T00:32:29;10.60;99.90
21403;DHT22;10862;51.886;17.078;2024-03-22T00:34:55;10.60;99.90
21403;DHT22;10862;51.886;17.078;2024-03-22T00:37:20;10.50;99.90
21403;DHT22;10862;51.886;17.078;2024-03-22T00:39:46;10.50;99.90
21403;DHT22;10862;51.886;17.078;2024-03-22T00:42:11;10.40;99.90
21403;DHT22;10862;51.886;17.078;2024-03-22T00:44:37;10.40;99.90
21403;DHT22;10862;51.886;17.078;2024-03-22T00:47:03;10.40;99.90
21403;DHT22;10862;51.886;17.078;2024-03-22T00:49:31;10.40;99.90
21403;DHT22;10862;51.886;17.078;2024-03-22T00:51:56;10.30;99.90
21403;DHT22;10862;51.886;17.078;2024-03-22T00:54:22;10.20;99.90
21403;DHT22;10862;51.886;17.078;2024-03-22T00:56:48;10.20;99.90
21403;DHT22;10862;51.886;17.078;2024-03-22T00:59:13;10.10;99.90
21403;DHT22;10862;51.886;17.078;2024-03-22T01:01:39;10.20;99.90
21403;DHT22;10862;51.886;17.078;2024-03-22T01:04:04;10.10;99.90
21403;DHT22;10862;51.886;17.078;2024-03-22T01:06:30;10.00;99.90
21403;DHT22;10862;51.886;17.078;2024-03-22T01:08:55;10.10;99.90
21403;DHT22;10862;51.886;17.078;2024-03-22T01:11:21;10.20;99.90
21403;DHT22;10862;51.886;17.078;2024-03-22T01:13:47;10.10;99.90
21403;DHT22;10862;51.886;17.078;2024-03-22T01:16:12;10.00;99.90
21403;DHT22;10862;51.886;17.078;2024-03-22T01:18:38;10.10;99.90
21403;DHT22;10862;51.886;17.078;2024-03-22T01:21:04;10.10;99.90
21403;DHT22;10862;51.886;17.078;2024-03-22T01:23:30;10.10;99.90
21403;DHT22;10862;51.886;17.078;2024-03-22T01:25:56;10.10;99.90
21403;DHT22;10862;51.886;17.078;2024-03-22T01:28:22;10.00;99.90
21403;DHT22;10862;51.886;17.078;2024-03-22T01:30:47;10.10;99.90
21403;DHT22;10862;51.886;17.078;2024-03-22T01:33:13;10.10;99.90
21403;DHT22;10862;51.886;17.078;2024-03-22T01:35:38;10.00;99.90
21403;DHT22;10862;51.886;17.078;2024-03-22T01:38:04;10.10;99.90
21403;DHT22;10862;51.886;17.078;2024-03-22T01:40:30;10.00;99.90
21403;DHT22;10862;51.886;17.078;2024-03-22T01:42:57;10.00;99.90
21403;DHT22;10862;51.886;17.078;2024-03-22T01:45:22;10.10;99.90
21403;DHT22;10862;51.886;17.078;2024-03-22T01:47:53;10.10;99.90
21403;DHT22;10862;51.886;17.078;2024-03-22T01:50:22;10.10;99.90
21403;DHT22;10862;51.886;17.078;2024-03-22T01:52:48;10.10;99.90
21403;DHT22;10862;51.886;17.078;2024-03-22T01:55:14;10.10;99.90
21403;DHT22;10862;51.886;17.078;2024-03-22T01:57:39;10.10;99.90
21403;DHT22;10862;51.886;17.078;2024-03-22T02:00:07;10.00;99.90
21403;DHT22;10862;51.886;17.078;2024-03-22T02:02:34;10.00;99.90
21403;DHT22;10862;51.886;17.078;2024-03-22T02:05:10;10.00;99.90
21403;DHT22;10862;51.886;17.078;2024-03-22T02:07:36;9.90;99.90
21403;DHT22;10862;51.886;17.078;2024-03-22T02:10:02;10.00;99.90
21403;DHT22;10862;51.886;17.078;2024-03-22T02:12:27;10.00;99.90
21403;DHT22;10862;51.886;17.078;2024-03-22T02:14:53;9.80;99.90
21403;DHT22;10862;51.886;17.078;2024-03-22T02:17:18;9.60;99.90
21403;DHT22;10862;51.886;17.078;2024-03-22T02:19:44;9.40;99.90
21403;DHT22;10862;51.886;17.078;2024-03-22T02:22:09;9.30;99.90
21403;DHT22;10862;51.886;17.078;2024-03-22T02:24:35;9.00;99.90
21403;DHT22;10862;51.886;17.078;2024-03-22T02:27:01;8.90;99.90
21403;DHT22;10862;51.886;17.078;2024-03-22T02:29:26;8.80;99.90
21403;DHT22;10862;51.886;17.078;2024-03-22T02:31:53;8.70;99.90
21403;DHT22;10862;51.886;17.078;2024-03-22T02:34:18;8.70;99.90
21403;DHT22;10862;51.886;17.078;2024-03-22T02:36:44;8.80;99.90
21403;DHT22;10862;51.886;17.078;2024-03-22T02:39:09;8.80;99.90
21403;DHT22;10862;51.886;17.078;2024-03-22T02:41:35;8.70;99.90
21403;DHT22;10862;51.886;17.078;2024-03-22T02:44:01;8.70;99.90
21403;DHT22;10862;51.886;17.078;2024-03-22T02:46:26;8.80;99.90
21403;DHT22;10862;51.886;17.078;2024-03-22T02:48:52;8.90;99.90
21403;DHT22;10862;51.886;17.078;2024-03-22T02:51:17;8.80;99.90
21403;DHT22;10862;51.886;17.078;2024-03-22T02:53:43;8.70;99.90
21403;DHT22;10862;51.886;17.078;2024-03-22T02:56:08;8.80;99.90
21403;DHT22;10862;51.886;17.078;2024-03-22T02:58:34;8.70;99.90
21403;DHT22;10862;51.886;17.078;2024-03-22T03:01:02;8.80;99.90
21403;DHT22;10862;51.886;17.078;2024-03-22T03:03:28;8.70;99.90
21403;DHT22;10862;51.886;17.078;2024-03-22T03:05:54;8.70;99.90
21403;DHT22;10862;51.886;17.078;2024-03-22T03:08:19;8.60;99.90
21403;DHT22;10862;51.886;17.078;2024-03-22T03:10:45;8.70;99.90
21403;DHT22;10862;51.886;17.078;2024-03-22T03:13:11;8.70;99.90
21403;DHT22;10862;51.886;17.078;2024-03-22T03:15:36;8.60;99.90
21403;DHT22;10862;51.886;17.078;2024-03-22T03:18:02;8.70;99.90
21403;DHT22;10862;51.886;17.078;2024-03-22T03:20:27;8.60;99.90
21403;DHT22;10862;51.886;17.078;2024-03-22T03:22:53;8.70;99.90
21403;DHT22;10862;51.886;17.078;2024-03-22T03:25:19;8.70;99.90
21403;DHT22;10862;51.886;17.078;2024-03-22T03:27:44;8.70;99.90
21403;DHT22;10862;51.886;17.078;2024-03-22T03:30:10;8.70;99.90
21403;DHT22;10862;51.886;17.078;2024-03-22T03:32:36;8.50;99.90
21403;DHT22;10862;51.886;17.078;2024-03-22T03:35:01;8.60;99.90
21403;DHT22;10862;51.886;17.078;2024-03-22T03:37:27;8.50;99.90
21403;DHT22;10862;51.886;17.078;2024-03-22T03:39:52;8.50;99.90
21403;DHT22;10862;51.886;17.078;2024-03-22T03:42:18;8.60;99.90
21403;DHT22;10862;51.886;17.078;2024-03-22T03:44:43;8.60;99.90
21403;DHT22;10862;51.886;17.078;2024-03-22T03:47:09;8.50;99.90
21403;DHT22;10862;51.886;17.078;2024-03-22T03:49:35;8.50;99.90
21403;DHT22;10862;51.886;17.078;2024-03-22T03:52:00;8.50;99.90
21403;DHT22;10862;51.886;17.078;2024-03-22T03:54:26;8.30;99.90
21403;DHT22;10862;51.886;17.078;2024-03-22T03:56:51;8.40;99.90
21403;DHT22;10862;51.886;17.078;2024-03-22T03:59:17;8.40;99.90
21403;DHT22;10862;51.886;17.078;2024-03-22T04:01:43;8.30;99.90
21403;DHT22;10862;51.886;17.078;2024-03-22T04:04:08;8.40;99.90
21403;DHT22;10862;51.886;17.078;2024-03-22T04:06:34;8.30;99.90
21403;DHT22;10862;51.886;17.078;2024-03-22T04:09:00;8.40;99.90
21403;DHT22;10862;51.886;17.078;2024-03-22T04:11:26;8.40;99.90
21403;DHT22;10862;51.886;17.078;2024-03-22T04:13:51;8.30;99.90
21403;DHT22;10862;51.886;17.078;2024-03-22T04:16:17;8.20;99.90
21403;DHT22;10862;51.886;17.078;2024-03-22T04:18:42;8.20;99.90
21403;DHT22;10862;51.886;17.078;2024-03-22T04:21:08;8.30;99.90
21403;DHT22;10862;51.886;17.078;2024-03-22T04:23:33;8.20;99.90
21403;DHT22;10862;51.886;17.078;2024-03-22T04:26:00;8.20;99.90
21403;DHT22;10862;51.886;17.078;2024-03-22T04:28:29;8.30;99.90
21403;DHT22;10862;51.886;17.078;2024-03-22T04:33:24;8.20;99.90
21403;DHT22;10862;51.886;17.078;2024-03-22T04:35:50;8.20;99.90
21403;DHT22;10862;51.886;17.078;2024-03-22T04:38:16;8.30;99.90
21403;DHT22;10862;51.886;17.078;2024-03-22T04:40:42;8.60;99.90
21403;DHT22;10862;51.886;17.078;2024-03-22T04:43:08;8.60;99.90
21403;DHT22;10862;51.886;17.078;2024-03-22T04:45:34;8.50;99.90
21403;DHT22;10862;51.886;17.078;2024-03-22T04:48:02;8.60;99.90
21403;DHT22;10862;51.886;17.078;2024-03-22T04:50:28;8.60;99.90
21403;DHT22;10862;51.886;17.078;2024-03-22T04:52:54;8.50;99.90
21403;DHT22;10862;51.886;17.078;2024-03-22T04:55:20;8.40;99.90
21403;DHT22;10862;51.886;17.078;2024-03-22T04:57:48;8.20;99.90
21403;DHT22;10862;51.886;17.078;2024-03-22T05:00:19;8.20;99.90
21403;DHT22;10862;51.886;17.078;2024-03-22T05:02:44;8.10;99.90
21403;DHT22;10862;51.886;17.078;2024-03-22T05:05:13;8.00;99.90
21403;DHT22;10862;51.886;17.078;2024-03-22T05:07:39;8.10;99.90
21403;DHT22;10862;51.886;17.078;2024-03-22T05:10:05;8.10;99.90
21403;DHT22;10862;51.886;17.078;2024-03-22T05:12:31;8.30;99.90
21403;DHT22;10862;51.886;17.078;2024-03-22T05:14:56;8.30;99.90
21403;DHT22;10862;51.886;17.078;2024-03-22T05:17:22;8.30;99.90
21403;DHT22;10862;51.886;17.078;2024-03-22T05:19:48;8.40;99.90
21403;DHT22;10862;51.886;17.078;2024-03-22T05:22:13;8.60;99.90
21403;DHT22;10862;51.886;17.078;2024-03-22T05:24:39;8.60;99.90
21403;DHT22;10862;51.886;17.078;2024-03-22T05:27:05;8.50;99.90
21403;DHT22;10862;51.886;17.078;2024-03-22T05:29:30;8.60;99.90
21403;DHT22;10862;51.886;17.078;2024-03-22T05:31:56;8.70;99.90
21403;DHT22;10862;51.886;17.078;2024-03-22T05:34:22;8.60;99.90
21403;DHT22;10862;51.886;17.078;2024-03-22T05:36:48;8.60;99.90
21403;DHT22;10862;51.886;17.078;2024-03-22T05:39:14;8.60;99.90
21403;DHT22;10862;51.886;17.078;2024-03-22T05:41:40;8.50;99.90
21403;DHT22;10862;51.886;17.078;2024-03-22T05:44:06;8.50;99.90
21403;DHT22;10862;51.886;17.078;2024-03-22T05:46:31;8.70;99.90
21403;DHT22;10862;51.886;17.078;2024-03-22T05:48:58;8.80;99.90
21403;DHT22;10862;51.886;17.078;2024-03-22T05:51:27;8.70;99.90
21403;DHT22;10862;51.886;17.078;2024-03-22T05:53:52;8.70;99.90
21403;DHT22;10862;51.886;17.078;2024-03-22T05:56:18;8.70;99.90
21403;DHT22;10862;51.886;17.078;2024-03-22T05:58:44;8.80;99.90
21403;DHT22;10862;51.886;17.078;2024-03-22T06:01:09;8.90;99.90
21403;DHT22;10862;51.886;17.078;2024-03-22T06:03:35;8.80;99.90
21403;DHT22;10862;51.886;17.078;2024-03-22T06:06:01;8.80;99.90
21403;DHT22;10862;51.886;17.078;2024-03-22T06:08:27;8.70;99.90
21403;DHT22;10862;51.886;17.078;2024-03-22T06:10:54;8.80;99.90
21403;DHT22;10862;51.886;17.078;2024-03-22T06:13:20;8.90;99.90
21403;DHT22;10862;51.886;17.078;2024-03-22T06:15:48;8.80;99.90
21403;DHT22;10862;51.886;17.078;2024-03-22T06:18:14;8.60;99.90
21403;DHT22;10862;51.886;17.078;2024-03-22T06:20:40;8.80;99.90
21403;DHT22;10862;51.886;17.078;2024-03-22T06:23:06;8.60;99.90
21403;DHT22;10862;51.886;17.078;2024-03-22T06:25:32;8.70;99.90
21403;DHT22;10862;51.886;17.078;2024-03-22T06:27:58;8.60;73.30
21403;DHT22;10862;51.886;17.078;2024-03-22T06:30:23;8.70;36.30
21403;DHT22;10862;51.886;17.078;2024-03-22T06:32:49;8.90;1.00
21403;DHT22;10862;51.886;17.078;2024-03-22T06:35:14;8.80;1.00
21403;DHT22;10862;51.886;17.078;2024-03-22T06:37:40;8.70;1.00
21403;DHT22;10862;51.886;17.078;2024-03-22T06:40:09;8.80;1.00
21403;DHT22;10862;51.886;17.078;2024-03-22T06:42:35;9.00;1.00
21403;DHT22;10862;51.886;17.078;2024-03-22T06:45:01;8.80;1.00
21403;DHT22;10862;51.886;17.078;2024-03-22T06:47:27;8.80;1.00
21403;DHT22;10862;51.886;17.078;2024-03-22T06:49:53;8.80;1.00
21403;DHT22;10862;51.886;17.078;2024-03-22T06:52:18;8.90;1.00
21403;DHT22;10862;51.886;17.078;2024-03-22T06:54:45;9.00;1.00
21403;DHT22;10862;51.886;17.078;2024-03-22T06:57:11;8.90;99.90
21403;DHT22;10862;51.886;17.078;2024-03-22T06:59:36;8.80;1.00
21403;DHT22;10862;51.886;17.078;2024-03-22T07:02:02;8.90;1.00
21403;DHT22;10862;51.886;17.078;2024-03-22T07:04:28;9.00;99.90
21403;DHT22;10862;51.886;17.078;2024-03-22T07:06:53;9.00;1.00
21403;DHT22;10862;51.886;17.078;2024-03-22T07:09:19;8.90;1.00
21403;DHT22;10862;51.886;17.078;2024-03-22T07:11:44;8.90;1.00
21403;DHT22;10862;51.886;17.078;2024-03-22T07:14:10;8.80;1.00
21403;DHT22;10862;51.886;17.078;2024-03-22T07:16:36;8.80;1.00
21403;DHT22;10862;51.886;17.078;2024-03-22T07:19:02;9.00;1.00
21403;DHT22;10862;51.886;17.078;2024-03-22T07:21:29;9.00;99.90
21403;DHT22;10862;51.886;17.078;2024-03-22T07:23:54;9.10;50.90
21403;DHT22;10862;51.886;17.078;2024-03-22T07:26:20;9.20;1.00
21403;DHT22;10862;51.886;17.078;2024-03-22T07:28:45;9.10;99.90
21403;DHT22;10862;51.886;17.078;2024-03-22T07:31:11;9.20;1.00
21403;DHT22;10862;51.886;17.078;2024-03-22T07:33:37;9.30;99.90
21403;DHT22;10862;51.886;17.078;2024-03-22T07:36:04;9.50;1.00
21403;DHT22;10862;51.886;17.078;2024-03-22T07:38:30;9.50;1.00
21403;DHT22;10862;51.886;17.078;2024-03-22T07:40:56;9.50;1.00
21403;DHT22;10862;51.886;17.078;2024-03-22T07:43:21;9.80;1.00
21403;DHT22;10862;51.886;17.078;2024-03-22T07:45:47;9.90;99.90
21403;DHT22;10862;51.886;17.078;2024-03-22T07:48:12;10.00;1.00
21403;DHT22;10862;51.886;17.078;2024-03-22T07:50:38;10.00;1.00
21403;DHT22;10862;51.886;17.078;2024-03-22T07:53:04;9.80;1.00
21403;DHT22;10862;51.886;17.078;2024-03-22T07:55:29;9.70;99.90
21403;DHT22;10862;51.886;17.078;2024-03-22T07:57:55;9.80;99.90
21403;DHT22;10862;51.886;17.078;2024-03-22T08:00:21;9.80;1.00
21403;DHT22;10862;51.886;17.078;2024-03-22T08:02:47;9.90;92.90
21403;DHT22;10862;51.886;17.078;2024-03-22T08:05:12;10.10;99.90
21403;DHT22;10862;51.886;17.078;2024-03-22T08:07:38;10.30;1.00
21403;DHT22;10862;51.886;17.078;2024-03-22T08:10:04;10.40;1.00
21403;DHT22;10862;51.886;17.078;2024-03-22T08:12:30;10.30;1.00
21403;DHT22;10862;51.886;17.078;2024-03-22T08:14:55;10.10;99.90
21403;DHT22;10862;51.886;17.078;2024-03-22T08:17:21;10.30;99.90
21403;DHT22;10862;51.886;17.078;2024-03-22T08:19:47;10.20;1.00
21403;DHT22;10862;51.886;17.078;2024-03-22T08:22:12;10.20;1.00
21403;DHT22;10862;51.886;17.078;2024-03-22T08:24:38;10.20;1.00
21403;DHT22;10862;51.886;17.078;2024-03-22T08:27:03;10.10;1.00
21403;DHT22;10862;51.886;17.078;2024-03-22T08:29:29;10.10;1.00
21403;DHT22;10862;51.886;17.078;2024-03-22T08:31:55;10.00;99.90
21403;DHT22;10862;51.886;17.078;2024-03-22T08:34:21;10.00;99.90
21403;DHT22;10862;51.886;17.078;2024-03-22T08:36:47;9.90;99.90
21403;DHT22;10862;51.886;17.078;2024-03-22T08:39:12;10.20;99.90
21403;DHT22;10862;51.886;17.078;2024-03-22T08:41:38;10.50;99.90
21403;DHT22;10862;51.886;17.078;2024-03-22T08:44:03;10.50;99.90
21403;DHT22;10862;51.886;17.078;2024-03-22T08:46:29;10.50;1.00
21403;DHT22;10862;51.886;17.078;2024-03-22T08:48:57;10.60;1.00
21403;DHT22;10862;51.886;17.078;2024-03-22T08:51:23;10.80;1.00
21403;DHT22;10862;51.886;17.078;2024-03-22T08:53:48;10.90;99.90
21403;DHT22;10862;51.886;17.078;2024-03-22T08:56:14;10.90;1.00
21403;DHT22;10862;51.886;17.078;2024-03-22T08:58:39;10.80;1.00
21403;DHT22;10862;51.886;17.078;2024-03-22T09:01:05;10.90;1.00
21403;DHT22;10862;51.886;17.078;2024-03-22T09:03:31;11.00;1.00
21403;DHT22;10862;51.886;17.078;2024-03-22T09:05:57;11.10;1.00
21403;DHT22;10862;51.886;17.078;2024-03-22T09:08:23;11.20;99.90
21403;DHT22;10862;51.886;17.078;2024-03-22T09:10:49;11.50;99.90
21403;DHT22;10862;51.886;17.078;2024-03-22T09:13:14;11.70;1.00
21403;DHT22;10862;51.886;17.078;2024-03-22T09:15:40;12.00;1.00
21403;DHT22;10862;51.886;17.078;2024-03-22T09:18:05;12.10;1.00
21403;DHT22;10862;51.886;17.078;2024-03-22T09:20:31;12.10;99.90
21403;DHT22;10862;51.886;17.078;2024-03-22T09:22:57;12.10;99.90
21403;DHT22;10862;51.886;17.078;2024-03-22T09:25:25;12.20;99.90
21403;DHT22;10862;51.886;17.078;2024-03-22T09:27:51;12.20;99.90
21403;DHT22;10862;51.886;17.078;2024-03-22T09:30:16;12.10;99.90
21403;DHT22;10862;51.886;17.078;2024-03-22T09:32:42;12.10;99.90
21403;DHT22;10862;51.886;17.078;2024-03-22T09:35:10;12.00;99.90
21403;DHT22;10862;51.886;17.078;2024-03-22T09:37:40;12.40;99.90
21403;DHT22;10862;51.886;17.078;2024-03-22T09:40:06;12.60;99.90
21403;DHT22;10862;51.886;17.078;2024-03-22T09:42:33;13.30;99.90
21403;DHT22;10862;51.886;17.078;2024-03-22T09:45:04;12.80;99.90
21403;DHT22;10862;51.886;17.078;2024-03-22T09:47:33;12.60;99.90
21403;DHT22;10862;51.886;17.078;2024-03-22T09:50:00;12.70;99.90
21403;DHT22;10862;51.886;17.078;2024-03-22T09:52:26;12.40;99.90
21403;DHT22;10862;51.886;17.078;2024-03-22T09:54:53;12.10;99.90
21403;DHT22;10862;51.886;17.078;2024-03-22T09:57:20;12.20;99.90
21403;DHT22;10862;51.886;17.078;2024-03-22T09:59:46;12.40;99.90
21403;DHT22;10862;51.886;17.078;2024-03-22T10:02:13;12.50;99.90
21403;DHT22;10862;51.886;17.078;2024-03-22T10:04:40;12.60;99.90
21403;DHT22;10862;51.886;17.078;2024-03-22T10:07:05;12.90;68.20
21403;DHT22;10862;51.886;17.078;2024-03-22T10:09:32;12.90;1.00
21403;DHT22;10862;51.886;17.078;2024-03-22T10:11:58;13.00;1.00
21403;DHT22;10862;51.886;17.078;2024-03-22T10:14:23;13.00;6.40
21403;DHT22;10862;51.886;17.078;2024-03-22T10:16:53;13.10;1.00
21403;DHT22;10862;51.886;17.078;2024-03-22T10:19:20;13.30;1.00
21403;DHT22;10862;51.886;17.078;2024-03-22T10:21:46;13.10;1.00
21403;DHT22;10862;51.886;17.078;2024-03-22T10:24:12;13.30;1.00
21403;DHT22;10862;51.886;17.078;2024-03-22T10:26:39;13.30;1.00
21403;DHT22;10862;51.886;17.078;2024-03-22T10:29:08;13.40;1.00
21403;DHT22;10862;51.886;17.078;2024-03-22T10:31:35;13.20;1.00
21403;DHT22;10862;51.886;17.078;2024-03-22T10:34:02;13.60;1.00
21403;DHT22;10862;51.886;17.078;2024-03-22T10:36:30;14.10;1.00
21403;DHT22;10862;51.886;17.078;2024-03-22T10:38:57;15.00;1.00
21403;DHT22;10862;51.886;17.078;2024-03-22T10:41:24;15.80;1.00
21403;DHT22;10862;51.886;17.078;2024-03-22T10:43:49;16.30;1.00
21403;DHT22;10862;51.886;17.078;2024-03-22T10:46:16;17.20;1.00
21403;DHT22;10862;51.886;17.078;2024-03-22T10:48:45;16.90;99.90
21403;DHT22;10862;51.886;17.078;2024-03-22T10:51:13;15.90;99.90
21403;DHT22;10862;51.886;17.078;2024-03-22T10:53:40;15.70;99.90
21403;DHT22;10862;51.886;17.078;2024-03-22T10:56:07;16.00;1.00
21403;DHT22;10862;51.886;17.078;2024-03-22T10:58:34;16.20;99.90
21403;DHT22;10862;51.886;17.078;2024-03-22T11:01:05;15.60;99.90
21403;DHT22;10862;51.886;17.078;2024-03-22T11:03:30;15.50;99.90
21403;DHT22;10862;51.886;17.078;2024-03-22T11:05:58;15.00;99.90
21403;DHT22;10862;51.886;17.078;2024-03-22T11:08:29;14.70;99.90
21403;DHT22;10862;51.886;17.078;2024-03-22T11:10:56;14.30;99.90
21403;DHT22;10862;51.886;17.078;2024-03-22T11:13:22;13.90;1.00
21403;DHT22;10862;51.886;17.078;2024-03-22T11:15:51;13.80;1.00
21403;DHT22;10862;51.886;17.078;2024-03-22T11:18:17;13.70;1.00
21403;DHT22;10862;51.886;17.078;2024-03-22T11:20:43;13.60;1.00
21403;DHT22;10862;51.886;17.078;2024-03-22T11:23:10;13.60;1.00
21403;DHT22;10862;51.886;17.078;2024-03-22T11:25:36;13.40;1.00
21403;DHT22;10862;51.886;17.078;2024-03-22T11:28:02;13.60;1.00
21403;DHT22;10862;51.886;17.078;2024-03-22T11:30:29;13.50;1.00
21403;DHT22;10862;51.886;17.078;2024-03-22T11:32:54;13.60;1.00
21403;DHT22;10862;51.886;17.078;2024-03-22T11:35:20;13.20;1.00
21403;DHT22;10862;51.886;17.078;2024-03-22T11:37:45;13.00;1.00
21403;DHT22;10862;51.886;17.078;2024-03-22T11:40:12;12.80;1.00
21403;DHT22;10862;51.886;17.078;2024-03-22T11:42:39;12.80;1.00
21403;DHT22;10862;51.886;17.078;2024-03-22T11:45:08;12.90;1.00
21403;DHT22;10862;51.886;17.078;2024-03-22T11:47:34;12.80;1.00
21403;DHT22;10862;51.886;17.078;2024-03-22T11:50:01;12.90;1.00
21403;DHT22;10862;51.886;17.078;2024-03-22T11:52:27;13.00;1.00
21403;DHT22;10862;51.886;17.078;2024-03-22T11:54:53;13.20;1.00
21403;DHT22;10862;51.886;17.078;2024-03-22T11:57:22;13.00;1.00
21403;DHT22;10862;51.886;17.078;2024-03-22T11:59:51;13.00;1.00
21403;DHT22;10862;51.886;17.078;2024-03-22T12:02:17;13.00;1.00
21403;DHT22;10862;51.886;17.078;2024-03-22T12:04:45;12.90;1.00
21403;DHT22;10862;51.886;17.078;2024-03-22T12:07:12;12.80;1.00
21403;DHT22;10862;51.886;17.078;2024-03-22T12:09:38;12.70;1.00
21403;DHT22;10862;51.886;17.078;2024-03-22T12:12:08;12.40;1.00
21403;DHT22;10862;51.886;17.078;2024-03-22T12:14:34;12.40;1.00
21403;DHT22;10862;51.886;17.078;2024-03-22T12:17:03;12.40;1.00
21403;DHT22;10862;51.886;17.078;2024-03-22T12:19:29;12.60;1.00
21403;DHT22;10862;51.886;17.078;2024-03-22T12:21:55;12.70;99.90
21403;DHT22;10862;51.886;17.078;2024-03-22T12:24:21;12.60;99.90
21403;DHT22;10862;51.886;17.078;2024-03-22T12:26:47;12.70;99.90
21403;DHT22;10862;51.886;17.078;2024-03-22T12:29:15;13.00;1.00
21403;DHT22;10862;51.886;17.078;2024-03-22T12:31:41;13.10;99.90
21403;DHT22;10862;51.886;17.078;2024-03-22T12:34:06;13.20;1.00
21403;DHT22;10862;51.886;17.078;2024-03-22T12:36:32;13.30;1.00
21403;DHT22;10862;51.886;17.078;2024-03-22T12:38:58;13.10;1.00
21403;DHT22;10862;51.886;17.078;2024-03-22T12:41:23;13.00;1.00
21403;DHT22;10862;51.886;17.078;2024-03-22T12:43:49;13.10;1.00
21403;DHT22;10862;51.886;17.078;2024-03-22T12:46:14;13.10;1.00
21403;DHT22;10862;51.886;17.078;2024-03-22T12:48:40;12.90;1.00
21403;DHT22;10862;51.886;17.078;2024-03-22T12:51:06;12.80;1.00
21403;DHT22;10862;51.886;17.078;2024-03-22T12:53:32;12.90;1.00
21403;DHT22;10862;51.886;17.078;2024-03-22T12:55:58;12.80;1.00
21403;DHT22;10862;51.886;17.078;2024-03-22T12:58:23;12.80;1.00
21403;DHT22;10862;51.886;17.078;2024-03-22T13:00:49;12.70;87.40
21403;DHT22;10862;51.886;17.078;2024-03-22T13:03:14;12.60;99.90
21403;DHT22;10862;51.886;17.078;2024-03-22T13:05:44;12.60;1.00
21403;DHT22;10862;51.886;17.078;2024-03-22T13:08:09;12.50;1.00
21403;DHT22;10862;51.886;17.078;2024-03-22T13:10:35;12.40;1.00
21403;DHT22;10862;51.886;17.078;2024-03-22T13:13:01;12.30;1.00
21403;DHT22;10862;51.886;17.078;2024-03-22T13:15:26;12.30;1.00
21403;DHT22;10862;51.886;17.078;2024-03-22T13:17:52;12.40;1.00
21403;DHT22;10862;51.886;17.078;2024-03-22T13:20:21;12.60;1.00
21403;DHT22;10862;51.886;17.078;2024-03-22T13:22:47;12.70;99.90
21403;DHT22;10862;51.886;17.078;2024-03-22T13:25:13;12.90;99.90
21403;DHT22;10862;51.886;17.078;2024-03-22T13:27:38;13.00;99.90
21403;DHT22;10862;51.886;17.078;2024-03-22T13:30:07;12.90;80.10
21403;DHT22;10862;51.886;17.078;2024-03-22T13:32:37;12.90;1.00
21403;DHT22;10862;51.886;17.078;2024-03-22T13:35:04;12.90;1.00
21403;DHT22;10862;51.886;17.078;2024-03-22T13:37:30;13.00;21.60
21403;DHT22;10862;51.886;17.078;2024-03-22T13:39:56;13.20;1.00
21403;DHT22;10862;51.886;17.078;2024-03-22T13:42:22;13.20;1.00
21403;DHT22;10862;51.886;17.078;2024-03-22T13:44:47;13.30;1.00
21403;DHT22;10862;51.886;17.078;2024-03-22T13:47:13;13.00;1.00
21403;DHT22;10862;51.886;17.078;2024-03-22T13:49:38;13.00;1.00
21403;DHT22;10862;51.886;17.078;2024-03-22T13:52:07;12.90;1.00
21403;DHT22;10862;51.886;17.078;2024-03-22T13:54:32;12.80;1.00
21403;DHT22;10862;51.886;17.078;2024-03-22T13:57:52;12.90;1.00
21403;DHT22;10862;51.886;17.078;2024-03-22T14:00:12;12.90;1.00
21403;DHT22;10862;51.886;17.078;2024-03-22T14:35:50;13.30;1.00
21403;DHT22;10862;51.886;17.078;2024-03-22T14:38:16;13.40;1.00
21403;DHT22;10862;51.886;17.078;2024-03-22T14:41:18;13.40;1.00
21403;DHT22;10862;51.886;17.078;2024-03-22T14:43:44;13.40;1.00
21403;DHT22;10862;51.886;17.078;2024-03-22T14:46:09;13.40;1.00
21403;DHT22;10862;51.886;17.078;2024-03-22T15:10:15;13.30;1.00
21403;DHT22;10862;51.886;17.078;2024-03-22T15:12:40;13.30;1.00
21403;DHT22;10862;51.886;17.078;2024-03-22T15:15:06;13.30;1.00
21403;DHT22;10862;51.886;17.078;2024-03-22T15:17:33;13.30;1.00
21403;DHT22;10862;51.886;17.078;2024-03-22T15:19:59;13.40;1.00
21403;DHT22;10862;51.886;17.078;2024-03-22T15:22:25;13.40;1.00
21403;DHT22;10862;51.886;17.078;2024-03-22T15:24:51;13.40;1.00
21403;DHT22;10862;51.886;17.078;2024-03-22T15:27:17;13.50;1.00
21403;DHT22;10862;51.886;17.078;2024-03-22T15:29:43;13.40;1.00
21403;DHT22;10862;51.886;17.078;2024-03-22T15:32:08;13.40;1.00
21403;DHT22;10862;51.886;17.078;2024-03-22T15:34:34;13.40;1.00
21403;DHT22;10862;51.886;17.078;2024-03-22T15:37:00;13.30;1.00
21403;DHT22;10862;51.886;17.078;2024-03-22T15:39:26;13.40;1.00
21403;DHT22;10862;51.886;17.078;2024-03-22T15:41:52;13.60;1.00
21403;DHT22;10862;51.886;17.078;2024-03-22T15:44:18;13.60;1.00
21403;DHT22;10862;51.886;17.078;2024-03-22T15:46:44;13.50;1.00
21403;DHT22;10862;51.886;17.078;2024-03-22T15:49:09;13.40;1.00
21403;DHT22;10862;51.886;17.078;2024-03-22T15:51:35;13.40;1.00
21403;DHT22;10862;51.886;17.078;2024-03-22T15:54:01;13.40;1.00
21403;DHT22;10862;51.886;17.078;2024-03-22T15:56:27;13.40;1.00
21403;DHT22;10862;51.886;17.078;2024-03-22T15:58:52;13.40;1.00
21403;DHT22;10862;51.886;17.078;2024-03-22T16:01:18;13.50;1.00
21403;DHT22;10862;51.886;17.078;2024-03-22T16:03:44;13.40;1.00
21403;DHT22;10862;51.886;17.078;2024-03-22T16:06:09;13.30;1.00
21403;DHT22;10862;51.886;17.078;2024-03-22T16:08:35;13.30;1.00
21403;DHT22;10862;51.886;17.078;2024-03-22T16:11:00;13.30;1.00
21403;DHT22;10862;51.886;17.078;2024-03-22T16:13:26;13.30;1.00
21403;DHT22;10862;51.886;17.078;2024-03-22T16:15:52;13.30;1.00
21403;DHT22;10862;51.886;17.078;2024-03-22T16:18:17;13.30;1.00